createdAt,value
2022-12-03T00:00:21.876Z,11.90
2022-12-03T00:03:08.957Z,11.90
2022-12-03T00:05:55.910Z,11.90
2022-12-03T00:08:35.868Z,11.90
2022-12-03T00:11:22.843Z,11.90
2022-12-03T00:14:09.883Z,11.90
2022-12-03T00:16:56.943Z,11.90
2022-12-03T00:19:36.868Z,11.80
2022-12-03T00:22:24.855Z,11.80
2022-12-03T00:25:05.056Z,11.80
2022-12-03T00:27:51.860Z,11.80
2022-12-03T00:30:31.983Z,11.80
2022-12-03T00:33:18.868Z,11.80
2022-12-03T00:36:05.895Z,11.80
2022-12-03T00:38:52.867Z,11.80
2022-12-03T00:41:32.940Z,11.80
2022-12-03T00:44:19.884Z,11.80
2022-12-03T00:47:00.102Z,11.80
2022-12-03T00:49:47.859Z,11.80
2022-12-03T00:52:28.000Z,11.80
2022-12-03T00:55:15.875Z,11.80
2022-12-03T00:57:55.973Z,11.80
2022-12-03T01:00:43.861Z,11.80
2022-12-03T01:03:23.902Z,11.80
2022-12-03T01:06:10.866Z,11.90
2022-12-03T01:08:51.134Z,11.80
2022-12-03T01:11:47.863Z,11.90
2022-12-03T01:14:27.980Z,11.80
2022-12-03T01:17:14.855Z,11.90
2022-12-03T01:19:54.980Z,11.80
2022-12-03T01:22:41.888Z,11.80
2022-12-03T01:25:22.056Z,11.80
2022-12-03T01:28:08.855Z,11.80
2022-12-03T01:31:07.948Z,11.80
2022-12-03T01:33:54.849Z,11.80
2022-12-03T01:36:42.839Z,11.80
2022-12-03T01:39:23.476Z,11.80
2022-12-03T01:42:10.865Z,11.80
2022-12-03T01:45:00.864Z,11.80
2022-12-03T01:47:42.903Z,11.80
2022-12-03T01:50:37.870Z,11.80
2022-12-03T01:53:21.966Z,11.80
2022-12-03T01:56:08.835Z,11.80
2022-12-03T01:58:49.969Z,11.70
2022-12-03T02:01:36.892Z,11.70
2022-12-03T02:04:26.909Z,11.70
2022-12-03T02:07:28.917Z,11.70
2022-12-03T02:10:09.918Z,11.70
2022-12-03T02:13:02.856Z,11.70
2022-12-03T02:15:45.025Z,11.60
2022-12-03T02:18:31.849Z,11.60
2022-12-03T02:21:37.840Z,11.60
2022-12-03T02:24:46.844Z,11.60
2022-12-03T02:27:26.890Z,11.60
2022-12-03T02:30:15.848Z,11.60
2022-12-03T02:33:03.884Z,11.60
2022-12-03T02:35:51.872Z,11.60
2022-12-03T02:38:42.895Z,11.60
2022-12-03T02:41:54.841Z,11.60
2022-12-03T02:44:41.856Z,11.60
2022-12-03T02:47:28.855Z,11.60
2022-12-03T02:50:17.925Z,11.70
2022-12-03T02:53:07.892Z,11.60
2022-12-03T02:56:03.865Z,11.60
2022-12-03T02:58:46.033Z,11.60
2022-12-03T03:01:32.906Z,11.60
2022-12-03T03:04:13.763Z,11.70
2022-12-03T03:07:00.875Z,11.70
2022-12-03T03:09:48.963Z,11.60
2022-12-03T03:12:28.860Z,11.60
2022-12-03T03:15:11.166Z,11.60
2022-12-03T03:17:57.858Z,11.60
2022-12-03T03:20:39.133Z,11.60
2022-12-03T03:23:25.866Z,11.60
2022-12-03T03:26:12.158Z,11.70
2022-12-03T03:29:01.845Z,11.70
2022-12-03T03:31:44.086Z,11.60
2022-12-03T03:34:30.899Z,11.60
2022-12-03T03:37:11.393Z,11.70
2022-12-03T03:39:57.854Z,11.70
2022-12-03T03:42:45.962Z,11.70
2022-12-03T03:45:29.389Z,11.70
2022-12-03T03:48:17.859Z,11.70
2022-12-03T03:50:58.927Z,11.70
2022-12-03T03:53:53.860Z,11.70
2022-12-03T03:56:40.846Z,11.70
2022-12-03T03:59:21.342Z,11.70
2022-12-03T04:02:07.859Z,11.60
2022-12-03T04:04:55.992Z,11.70
2022-12-03T04:07:42.926Z,11.60
2022-12-03T04:10:54.851Z,11.60
2022-12-03T04:13:42.018Z,11.60
2022-12-03T04:16:22.030Z,11.60
2022-12-03T04:19:02.327Z,11.60
2022-12-03T04:22:07.862Z,11.60
2022-12-03T04:24:48.435Z,11.60
2022-12-03T04:27:52.850Z,11.60
2022-12-03T04:30:39.971Z,11.60
2022-12-03T04:33:38.863Z,11.60
2022-12-03T04:36:25.849Z,11.60
2022-12-03T04:39:13.870Z,11.60
2022-12-03T04:42:07.882Z,11.60
2022-12-03T04:44:55.082Z,11.60
2022-12-03T04:47:41.883Z,11.60
2022-12-03T04:50:22.330Z,11.60
2022-12-03T04:53:08.877Z,11.60
2022-12-03T04:55:55.897Z,11.60
2022-12-03T04:58:42.872Z,11.60
2022-12-03T05:01:29.920Z,11.60
2022-12-03T05:04:09.935Z,11.60
2022-12-03T05:06:56.892Z,11.60
2022-12-03T05:09:38.898Z,11.60
2022-12-03T05:12:25.884Z,11.60
2022-12-03T05:15:05.928Z,11.60
2022-12-03T05:17:52.835Z,11.60
2022-12-03T05:20:41.747Z,11.60
2022-12-03T05:23:28.849Z,11.60
2022-12-03T05:26:08.914Z,11.60
2022-12-03T05:28:55.847Z,11.60
2022-12-03T05:31:35.924Z,11.60
2022-12-03T05:34:22.845Z,11.60
2022-12-03T05:37:09.850Z,11.60
2022-12-03T05:39:50.378Z,11.60
2022-12-03T05:42:54.841Z,11.60
2022-12-03T05:45:49.967Z,11.70
2022-12-03T05:48:29.848Z,11.60
2022-12-03T05:51:10.322Z,11.70
2022-12-03T05:53:56.884Z,11.70
2022-12-03T05:56:43.856Z,11.60
2022-12-03T05:59:23.904Z,11.60
2022-12-03T06:02:10.912Z,11.60
2022-12-03T06:04:51.130Z,11.60
2022-12-03T06:07:38.901Z,11.60
2022-12-03T06:10:27.855Z,11.60
2022-12-03T06:13:15.904Z,11.60
2022-12-03T06:16:02.976Z,11.60
2022-12-03T06:18:49.914Z,11.60
2022-12-03T06:21:36.855Z,11.60
2022-12-03T06:24:17.512Z,11.60
2022-12-03T06:27:03.848Z,11.60
2022-12-03T06:29:44.351Z,11.60
2022-12-03T06:32:30.869Z,11.60
2022-12-03T06:35:18.883Z,11.60
2022-12-03T06:37:58.955Z,11.50
2022-12-03T06:40:53.208Z,11.50
2022-12-03T06:43:33.455Z,11.50
2022-12-03T06:46:19.984Z,11.50
2022-12-03T06:49:00.745Z,11.50
2022-12-03T06:51:47.854Z,11.50
2022-12-03T06:54:28.416Z,11.40
2022-12-03T06:57:14.846Z,11.40
2022-12-03T07:00:02.370Z,11.40
2022-12-03T07:02:41.905Z,11.40
2022-12-03T07:05:28.895Z,11.40
2022-12-03T07:08:08.935Z,11.40
2022-12-03T07:10:56.168Z,11.40
2022-12-03T07:13:35.845Z,11.40
2022-12-03T07:16:22.945Z,11.40
2022-12-03T07:19:09.858Z,11.40
2022-12-03T07:21:56.843Z,11.40
2022-12-03T07:24:43.853Z,11.40
2022-12-03T07:27:24.351Z,11.40
2022-12-03T07:30:10.876Z,11.40
2022-12-03T07:32:57.860Z,11.40
2022-12-03T07:35:38.002Z,11.40
2022-12-03T07:38:24.851Z,11.40
2022-12-03T07:41:11.930Z,11.40
2022-12-03T07:43:51.860Z,11.40
2022-12-03T07:46:32.384Z,11.40
2022-12-03T07:49:21.872Z,11.40
2022-12-03T07:52:02.327Z,11.40
2022-12-03T07:54:48.915Z,11.30
2022-12-03T07:57:35.932Z,11.40
2022-12-03T08:00:17.852Z,11.60
2022-12-03T08:02:58.311Z,11.90
2022-12-03T08:05:44.854Z,12.20
2022-12-03T08:08:25.320Z,12.50
2022-12-03T08:11:11.888Z,12.80
2022-12-03T08:14:01.255Z,13.00
2022-12-03T08:19:42.856Z,13.40
2022-12-03T08:22:30.468Z,13.60
2022-12-03T08:25:12.843Z,13.70
2022-12-03T08:28:04.857Z,13.80
2022-12-03T08:30:51.856Z,13.90
2022-12-03T08:33:35.575Z,14.00
2022-12-03T08:36:26.856Z,14.10
2022-12-03T08:39:44.895Z,14.20
2022-12-03T08:42:41.928Z,14.30
2022-12-03T08:45:46.911Z,14.40
2022-12-03T08:48:37.945Z,14.50
2022-12-03T08:51:26.855Z,14.50
2022-12-03T08:54:21.097Z,14.60
2022-12-03T08:57:00.994Z,14.60
2022-12-03T08:59:45.478Z,14.70
2022-12-03T09:02:44.859Z,14.70
2022-12-03T09:05:44.956Z,14.80
2022-12-03T09:08:31.864Z,14.80
2022-12-03T09:11:12.011Z,14.80
2022-12-03T09:13:58.956Z,14.90
2022-12-03T09:16:38.964Z,14.90
2022-12-03T09:19:25.876Z,15.00
2022-12-03T09:22:05.914Z,14.90
2022-12-03T09:24:55.020Z,15.00
2022-12-03T09:27:34.957Z,15.00
2022-12-03T09:30:21.862Z,15.00
2022-12-03T09:33:08.859Z,15.00
2022-12-03T09:35:49.912Z,15.00
2022-12-03T09:38:43.131Z,15.10
2022-12-03T09:41:34.174Z,15.10
2022-12-03T09:44:17.862Z,15.10
2022-12-03T09:47:10.089Z,15.10
2022-12-03T09:49:49.924Z,15.10
2022-12-03T09:52:40.867Z,15.10
2022-12-03T09:55:25.002Z,15.20
2022-12-03T09:58:18.865Z,15.20
2022-12-03T10:01:00.166Z,15.20
2022-12-03T10:03:55.959Z,15.20
2022-12-03T10:06:40.948Z,15.20
2022-12-03T10:09:34.893Z,15.30
2022-12-03T10:12:19.921Z,15.30
2022-12-03T10:15:06.855Z,15.30
2022-12-03T10:17:46.952Z,15.30
2022-12-03T10:20:33.852Z,15.30
2022-12-03T10:23:13.893Z,15.30
2022-12-03T10:26:06.876Z,15.30
2022-12-03T10:28:55.840Z,15.40
2022-12-03T10:31:42.928Z,15.40
2022-12-03T10:34:31.857Z,15.40
2022-12-03T10:37:21.372Z,15.40
2022-12-03T10:40:11.848Z,15.40
2022-12-03T10:42:52.299Z,15.40
2022-12-03T10:45:38.863Z,15.40
2022-12-03T10:48:25.570Z,15.40
2022-12-03T10:51:18.862Z,15.30
2022-12-03T10:54:05.912Z,15.40
2022-12-03T10:56:45.855Z,15.30
2022-12-03T10:59:36.898Z,15.30
2022-12-03T11:02:28.871Z,15.30
2022-12-03T11:05:24.854Z,15.30
2022-12-03T11:08:11.873Z,15.30
2022-12-03T11:11:10.936Z,15.30
2022-12-03T11:13:54.855Z,15.20
2022-12-03T11:16:41.375Z,15.20
2022-12-03T11:19:51.865Z,15.20
2022-12-03T11:22:48.854Z,15.20
2022-12-03T11:25:32.082Z,15.20
2022-12-03T11:28:21.833Z,15.30
2022-12-03T11:31:17.908Z,15.20
2022-12-03T11:34:23.858Z,15.20
2022-12-03T11:37:22.860Z,15.20
2022-12-03T11:40:39.075Z,15.20
2022-12-03T11:43:18.908Z,15.20
2022-12-03T11:46:15.880Z,15.30
2022-12-03T11:49:05.871Z,15.20
2022-12-03T11:51:52.844Z,15.20
2022-12-03T11:54:39.839Z,15.30
2022-12-03T11:57:34.870Z,15.30
2022-12-03T12:00:32.867Z,15.20
2022-12-03T12:03:33.177Z,15.30
2022-12-03T12:06:28.868Z,15.30
2022-12-03T12:09:10.861Z,15.20
2022-12-03T12:11:57.848Z,15.30
2022-12-03T12:14:31.332Z,15.30
2022-12-03T12:17:17.865Z,15.30
2022-12-03T12:20:33.853Z,15.30
2022-12-03T12:23:34.916Z,15.20
2022-12-03T12:26:21.848Z,15.20
2022-12-03T12:29:01.924Z,15.30
2022-12-03T12:31:53.704Z,15.30
2022-12-03T12:34:33.928Z,15.30
2022-12-03T12:37:28.882Z,15.40
2022-12-03T12:40:18.975Z,15.40
2022-12-03T12:43:14.462Z,15.40
2022-12-03T12:45:59.430Z,15.40
2022-12-03T12:48:47.850Z,15.40
2022-12-03T12:51:27.894Z,15.40
2022-12-03T12:54:19.869Z,15.40
2022-12-03T12:56:59.915Z,15.40
2022-12-03T12:59:46.837Z,15.40
2022-12-03T13:02:33.025Z,15.40
2022-12-03T13:05:20.847Z,15.40
2022-12-03T13:08:03.660Z,15.40
2022-12-03T13:10:53.869Z,15.40
2022-12-03T13:13:43.134Z,15.30
2022-12-03T13:16:39.956Z,15.40
2022-12-03T13:19:48.216Z,15.40
2022-12-03T13:22:31.858Z,15.40
2022-12-03T13:26:00.656Z,15.40
2022-12-03T13:28:50.903Z,15.40
2022-12-03T13:31:44.076Z,15.40
2022-12-03T13:34:33.326Z,15.40
2022-12-03T13:37:33.862Z,15.40
2022-12-03T13:40:42.880Z,15.40
2022-12-03T13:43:23.508Z,15.40
2022-12-03T13:46:09.915Z,15.40
2022-12-03T13:48:51.379Z,15.40
2022-12-03T13:51:40.836Z,15.40
2022-12-03T13:54:32.867Z,15.40
2022-12-03T13:57:19.856Z,15.30
2022-12-03T14:00:06.915Z,15.30
2022-12-03T14:02:47.902Z,15.30
2022-12-03T14:05:28.703Z,15.30
2022-12-03T14:08:15.900Z,15.30
2022-12-03T14:11:00.435Z,15.30
2022-12-03T14:13:47.872Z,15.30
2022-12-03T14:16:34.971Z,15.30
2022-12-03T14:19:14.898Z,15.30
2022-12-03T14:21:55.359Z,15.30
2022-12-03T14:24:41.850Z,15.30
2022-12-03T14:27:29.017Z,15.30
2022-12-03T14:30:08.897Z,15.30
2022-12-03T14:32:55.934Z,15.30
2022-12-03T14:35:35.854Z,15.30
2022-12-03T14:38:53.868Z,15.30
2022-12-03T14:42:05.856Z,15.30
2022-12-03T14:44:54.919Z,15.30
2022-12-03T14:47:34.868Z,15.30
2022-12-03T14:50:21.899Z,15.30
2022-12-03T14:53:01.880Z,15.30
2022-12-03T14:55:48.896Z,15.30
2022-12-03T14:58:28.875Z,15.30
2022-12-03T15:01:09.422Z,15.30
2022-12-03T15:03:55.854Z,15.30
2022-12-03T15:06:42.872Z,15.30
2022-12-03T15:09:22.969Z,15.30
2022-12-03T15:12:10.862Z,15.30
2022-12-03T15:14:50.895Z,15.30
2022-12-03T15:17:37.874Z,15.30
2022-12-03T15:20:24.898Z,15.30
2022-12-03T15:23:06.310Z,15.30
2022-12-03T15:25:48.418Z,15.30
2022-12-03T15:28:34.858Z,15.30
2022-12-03T15:31:21.939Z,15.30
2022-12-03T15:34:08.867Z,15.30
2022-12-03T15:36:55.872Z,15.30
2022-12-03T15:39:36.354Z,15.30
2022-12-03T15:42:22.849Z,15.30
2022-12-03T15:45:02.921Z,15.30
2022-12-03T15:47:49.852Z,15.30
2022-12-03T15:50:40.068Z,15.20
2022-12-03T15:53:26.855Z,15.30
2022-12-03T15:56:06.907Z,15.30
2022-12-03T15:58:53.862Z,15.30
2022-12-03T16:01:40.946Z,15.20
2022-12-03T16:04:21.328Z,15.30
2022-12-03T16:07:07.874Z,15.30
2022-12-03T16:09:55.154Z,15.30
2022-12-03T16:12:41.864Z,15.30
2022-12-03T16:15:26.961Z,15.30
2022-12-03T16:18:13.862Z,15.30
2022-12-03T16:20:54.327Z,15.30
2022-12-03T16:23:40.866Z,15.30
2022-12-03T16:26:28.971Z,15.30
2022-12-03T16:29:08.878Z,15.30
2022-12-03T16:31:55.914Z,15.30
2022-12-03T16:34:35.852Z,15.30
2022-12-03T16:37:22.871Z,15.30
2022-12-03T16:40:09.854Z,15.30
2022-12-03T16:42:56.919Z,15.30
2022-12-03T16:45:57.940Z,15.30
2022-12-03T16:48:44.931Z,15.30
2022-12-03T16:51:25.871Z,15.30
2022-12-03T16:54:06.366Z,15.30
2022-12-03T16:56:52.858Z,15.30
2022-12-03T16:59:33.432Z,15.30
2022-12-03T17:02:20.905Z,15.30
2022-12-03T17:05:07.911Z,15.30
2022-12-03T17:07:47.916Z,15.30
2022-12-03T17:10:34.934Z,15.30
2022-12-03T17:13:21.864Z,15.30
2022-12-03T17:16:09.010Z,15.30
2022-12-03T17:18:48.871Z,15.30
2022-12-03T17:21:35.944Z,15.30
2022-12-03T17:24:15.877Z,15.30
2022-12-03T17:26:56.361Z,15.30
2022-12-03T17:29:42.867Z,15.30
2022-12-03T17:32:23.331Z,15.30
2022-12-03T17:35:09.869Z,15.30
2022-12-03T17:37:56.950Z,15.30
2022-12-03T17:40:36.901Z,15.30
2022-12-03T17:43:23.907Z,15.30
2022-12-03T17:46:03.915Z,15.30
2022-12-03T17:48:50.925Z,15.30
2022-12-03T17:51:31.860Z,15.30
2022-12-03T17:54:12.340Z,15.30
2022-12-03T17:56:58.855Z,15.30
2022-12-03T17:59:45.856Z,15.30
2022-12-03T18:02:25.919Z,15.30
2022-12-03T18:05:12.856Z,15.30
2022-12-03T18:07:53.061Z,15.30
2022-12-03T18:10:39.852Z,15.30
2022-12-03T18:13:19.923Z,15.30
2022-12-03T18:16:06.909Z,15.30
2022-12-03T18:18:46.909Z,15.30
2022-12-03T18:21:34.884Z,15.30
2022-12-03T18:24:15.921Z,15.30
2022-12-03T18:27:02.886Z,15.30
2022-12-03T18:29:42.979Z,15.30
2022-12-03T18:32:30.238Z,15.30
2022-12-03T18:35:09.972Z,15.30
2022-12-03T18:37:57.880Z,15.30
2022-12-03T18:40:44.875Z,15.30
2022-12-03T18:43:33.950Z,15.30
2022-12-03T18:46:51.289Z,15.30
2022-12-03T18:49:18.433Z,15.30
2022-12-03T18:52:04.860Z,15.30
2022-12-03T18:54:52.867Z,15.30
2022-12-03T18:57:39.855Z,15.30
2022-12-03T19:00:26.960Z,15.30
2022-12-03T19:03:06.905Z,15.30
2022-12-03T19:05:53.927Z,15.30
2022-12-03T19:08:33.866Z,15.30
2022-12-03T19:11:14.572Z,15.30
2022-12-03T19:14:03.863Z,15.30
2022-12-03T19:16:50.894Z,15.30
2022-12-03T19:19:38.003Z,15.30
2022-12-03T19:22:17.860Z,15.30
2022-12-03T19:24:58.342Z,15.30
2022-12-03T19:27:45.863Z,15.30
2022-12-03T19:30:32.903Z,15.30
2022-12-03T19:33:17.919Z,15.30
2022-12-03T19:36:06.014Z,15.30
2022-12-03T19:38:45.882Z,15.30
2022-12-03T19:41:33.984Z,15.30
2022-12-03T19:44:22.889Z,15.30
2022-12-03T19:47:02.938Z,15.30
2022-12-03T19:49:49.869Z,15.30
2022-12-03T19:52:36.887Z,15.30
2022-12-03T19:55:23.938Z,15.30
2022-12-03T19:58:03.876Z,15.30
2022-12-03T20:00:50.911Z,15.30
2022-12-03T20:03:30.854Z,15.30
2022-12-03T20:06:11.880Z,15.30
2022-12-03T20:08:59.867Z,15.30
2022-12-03T20:11:47.968Z,15.30
2022-12-03T20:14:28.872Z,15.30
2022-12-03T20:17:15.874Z,15.30
2022-12-03T20:20:09.871Z,15.30
2022-12-03T20:22:50.337Z,15.30
2022-12-03T20:25:36.870Z,15.30
2022-12-03T20:28:23.907Z,15.30
2022-12-03T20:31:24.954Z,15.30
2022-12-03T20:34:05.454Z,15.30
2022-12-03T20:36:51.886Z,15.30
2022-12-03T20:39:39.910Z,15.30
2022-12-03T20:42:19.864Z,15.30
2022-12-03T20:45:06.916Z,15.30
2022-12-03T20:47:46.854Z,15.30
2022-12-03T20:50:33.880Z,15.30
2022-12-03T20:53:24.837Z,15.30
2022-12-03T20:56:12.883Z,15.30
2022-12-03T20:58:54.963Z,15.30
2022-12-03T21:01:42.990Z,15.30
2022-12-03T21:04:22.923Z,15.30
2022-12-03T21:07:09.866Z,15.30
2022-12-03T21:09:49.985Z,15.30
2022-12-03T21:12:36.851Z,15.30
2022-12-03T21:15:16.915Z,15.30
2022-12-03T21:18:03.986Z,15.30
2022-12-03T21:21:00.865Z,15.30
2022-12-03T21:23:47.883Z,15.30
2022-12-03T21:26:34.960Z,15.30
2022-12-03T21:29:14.882Z,15.30
2022-12-03T21:32:02.011Z,15.30
2022-12-03T21:34:41.868Z,15.30
2022-12-03T21:37:22.959Z,15.30
2022-12-03T21:40:09.859Z,15.30
2022-12-03T21:42:56.884Z,15.40
2022-12-03T21:45:36.916Z,15.30
2022-12-03T21:48:23.882Z,15.30
2022-12-03T21:51:24.947Z,15.30
2022-12-03T21:54:11.857Z,15.30
2022-12-03T21:56:51.928Z,15.30
2022-12-03T21:59:38.876Z,15.30
2022-12-03T22:02:25.897Z,15.30
2022-12-03T22:05:08.252Z,15.30
2022-12-03T22:07:54.919Z,15.30
2022-12-03T22:10:42.939Z,15.30
2022-12-03T22:13:22.883Z,15.30
2022-12-03T22:16:15.030Z,15.30
2022-12-03T22:18:54.867Z,15.30
2022-12-03T22:21:48.877Z,15.30
2022-12-03T22:24:35.878Z,15.30
2022-12-03T22:27:22.879Z,15.30
2022-12-03T22:30:10.924Z,15.30
2022-12-03T22:32:50.865Z,15.30
2022-12-03T22:35:37.933Z,15.30
2022-12-03T22:38:17.880Z,15.30
2022-12-03T22:40:58.646Z,15.30
2022-12-03T22:43:44.872Z,15.30
2022-12-03T22:46:25.423Z,15.30
2022-12-03T22:49:11.875Z,15.30
2022-12-03T22:51:52.347Z,15.30
2022-12-03T22:54:38.882Z,15.30
2022-12-03T22:57:25.868Z,15.30
2022-12-03T23:00:06.895Z,15.30
2022-12-03T23:02:53.974Z,15.30
2022-12-03T23:05:38.603Z,15.40
2022-12-03T23:08:26.891Z,15.30
2022-12-03T23:11:06.910Z,15.30
2022-12-03T23:13:54.885Z,15.30
2022-12-03T23:16:37.061Z,15.30
2022-12-03T23:19:30.890Z,15.30
2022-12-03T23:22:17.933Z,15.30
2022-12-03T23:25:04.875Z,15.30
2022-12-03T23:27:44.937Z,15.30
2022-12-03T23:30:31.871Z,15.30
2022-12-03T23:33:19.870Z,15.30
2022-12-03T23:36:06.931Z,15.30
2022-12-03T23:38:46.880Z,15.10
2022-12-03T23:41:42.889Z,15.00
2022-12-03T23:44:23.361Z,14.70
2022-12-03T23:47:09.879Z,14.60
2022-12-03T23:49:57.061Z,14.50
2022-12-03T23:52:36.952Z,14.30
2022-12-03T23:55:23.879Z,14.20
2022-12-03T23:58:03.902Z,14.00
